sensor_id;sensor_type;location;lat;lon;timestamp;temperature;humidity
41547;DHT22;27271;45.412;10.852;2023-08-06T04:34:15;16.20;99.90
41547;DHT22;27271;45.412;10.852;2023-08-06T04:37:39;16.30;99.90
41547;DHT22;27271;45.412;10.852;2023-08-06T04:41:09;16.30;99.90
41547;DHT22;27271;45.412;10.852;2023-08-06T04:44:33;16.40;99.90
41547;DHT22;27271;45.412;10.852;2023-08-06T04:47:59;16.40;99.90
41547;DHT22;27271;45.412;10.852;2023-08-06T04:51:25;16.40;99.90
41547;DHT22;27271;45.412;10.852;2023-08-06T04:54:48;16.30;99.90
41547;DHT22;27271;45.412;10.852;2023-08-06T04:58:12;16.30;99.90
41547;DHT22;27271;45.412;10.852;2023-08-06T05:01:35;16.40;99.90
41547;DHT22;27271;45.412;10.852;2023-08-06T05:04:57;16.50;99.90
41547;DHT22;27271;45.412;10.852;2023-08-06T05:08:20;16.60;99.90
41547;DHT22;27271;45.412;10.852;2023-08-06T05:11:42;16.90;67.20
41547;DHT22;27271;45.412;10.852;2023-08-06T05:15:04;17.00;99.90
41547;DHT22;27271;45.412;10.852;2023-08-06T05:18:27;17.30;56.20
41547;DHT22;27271;45.412;10.852;2023-08-06T05:21:49;17.90;99.90
41547;DHT22;27271;45.412;10.852;2023-08-06T05:25:13;18.70;82.00
41547;DHT22;27271;45.412;10.852;2023-08-06T05:28:36;19.40;99.90
41547;DHT22;27271;45.412;10.852;2023-08-06T05:31:58;19.70;99.90
41547;DHT22;27271;45.412;10.852;2023-08-06T05:35:20;20.40;99.90
41547;DHT22;27271;45.412;10.852;2023-08-06T05:38:43;21.50;99.90
41547;DHT22;27271;45.412;10.852;2023-08-06T05:42:09;22.80;99.90
41547;DHT22;27271;45.412;10.852;2023-08-06T05:45:31;24.10;84.70
41547;DHT22;27271;45.412;10.852;2023-08-06T05:48:54;24.80;49.00
41547;DHT22;27271;45.412;10.852;2023-08-06T05:52:16;25.40;1.00
41547;DHT22;27271;45.412;10.852;2023-08-06T05:55:39;25.90;1.00
41547;DHT22;27271;45.412;10.852;2023-08-06T05:59:02;26.40;1.00
41547;DHT22;27271;45.412;10.852;2023-08-06T06:02:25;27.20;1.00
41547;DHT22;27271;45.412;10.852;2023-08-06T06:05:48;27.90;1.00
41547;DHT22;27271;45.412;10.852;2023-08-06T06:09:15;28.50;1.00
41547;DHT22;27271;45.412;10.852;2023-08-06T06:12:46;29.10;1.00
41547;DHT22;27271;45.412;10.852;2023-08-06T06:16:09;29.50;1.00
41547;DHT22;27271;45.412;10.852;2023-08-06T06:19:32;29.50;1.00
41547;DHT22;27271;45.412;10.852;2023-08-06T06:22:55;30.30;99.90
41547;DHT22;27271;45.412;10.852;2023-08-06T06:26:18;30.50;1.00
41547;DHT22;27271;45.412;10.852;2023-08-06T06:29:41;31.00;99.90
41547;DHT22;27271;45.412;10.852;2023-08-06T06:33:03;31.50;99.90
41547;DHT22;27271;45.412;10.852;2023-08-06T06:36:29;32.30;99.90
41547;DHT22;27271;45.412;10.852;2023-08-06T06:39:52;32.50;99.90
41547;DHT22;27271;45.412;10.852;2023-08-06T06:43:29;32.50;99.90
41547;DHT22;27271;45.412;10.852;2023-08-06T06:46:56;32.90;99.90
41547;DHT22;27271;45.412;10.852;2023-08-06T06:50:19;33.20;99.90
41547;DHT22;27271;45.412;10.852;2023-08-06T06:53:43;34.20;99.90
41547;DHT22;27271;45.412;10.852;2023-08-06T06:57:06;34.80;99.90
41547;DHT22;27271;45.412;10.852;2023-08-06T07:00:28;34.70;99.90
41547;DHT22;27271;45.412;10.852;2023-08-06T07:03:50;35.10;99.90
41547;DHT22;27271;45.412;10.852;2023-08-06T07:07:14;35.80;99.90
41547;DHT22;27271;45.412;10.852;2023-08-06T07:10:36;35.40;99.90
41547;DHT22;27271;45.412;10.852;2023-08-06T07:13:59;35.60;99.90
41547;DHT22;27271;45.412;10.852;2023-08-06T07:17:22;35.80;99.90
41547;DHT22;27271;45.412;10.852;2023-08-06T07:20:49;36.20;99.90
41547;DHT22;27271;45.412;10.852;2023-08-06T07:24:11;36.10;99.90
41547;DHT22;27271;45.412;10.852;2023-08-06T07:27:34;36.70;99.90
41547;DHT22;27271;45.412;10.852;2023-08-06T07:30:57;36.80;99.90
41547;DHT22;27271;45.412;10.852;2023-08-06T07:34:20;36.90;99.90
41547;DHT22;27271;45.412;10.852;2023-08-06T07:37:45;37.40;99.90
41547;DHT22;27271;45.412;10.852;2023-08-06T07:41:08;37.40;99.90
41547;DHT22;27271;45.412;10.852;2023-08-06T07:44:34;37.50;99.90
41547;DHT22;27271;45.412;10.852;2023-08-06T07:47:56;36.90;99.90
41547;DHT22;27271;45.412;10.852;2023-08-06T07:51:27;36.80;99.90
41547;DHT22;27271;45.412;10.852;2023-08-06T07:55:09;36.90;99.90
41547;DHT22;27271;45.412;10.852;2023-08-06T07:58:31;36.80;99.90
41547;DHT22;27271;45.412;10.852;2023-08-06T08:01:53;36.30;99.90
41547;DHT22;27271;45.412;10.852;2023-08-06T08:05:16;36.20;99.90
41547;DHT22;27271;45.412;10.852;2023-08-06T08:08:38;36.10;99.90
41547;DHT22;27271;45.412;10.852;2023-08-06T08:12:01;35.90;99.90
41547;DHT22;27271;45.412;10.852;2023-08-06T08:15:28;35.40;99.90
41547;DHT22;27271;45.412;10.852;2023-08-06T08:18:51;35.30;99.90
41547;DHT22;27271;45.412;10.852;2023-08-06T08:22:13;35.10;99.90
41547;DHT22;27271;45.412;10.852;2023-08-06T08:25:35;35.80;99.90
41547;DHT22;27271;45.412;10.852;2023-08-06T08:28:57;35.10;99.90
41547;DHT22;27271;45.412;10.852;2023-08-06T08:32:19;34.80;99.90
41547;DHT22;27271;45.412;10.852;2023-08-06T08:36:00;35.00;99.90
41547;DHT22;27271;45.412;10.852;2023-08-06T08:39:22;35.40;99.90
41547;DHT22;27271;45.412;10.852;2023-08-06T08:42:44;36.30;99.90
41547;DHT22;27271;45.412;10.852;2023-08-06T08:46:07;36.60;99.90
41547;DHT22;27271;45.412;10.852;2023-08-06T08:49:31;35.90;99.90
41547;DHT22;27271;45.412;10.852;2023-08-06T08:52:53;36.00;99.90
41547;DHT22;27271;45.412;10.852;2023-08-06T08:56:16;36.40;99.90
41547;DHT22;27271;45.412;10.852;2023-08-06T08:59:38;36.40;99.90
41547;DHT22;27271;45.412;10.852;2023-08-06T09:03:00;37.40;99.90
41547;DHT22;27271;45.412;10.852;2023-08-06T09:06:25;37.40;99.90
41547;DHT22;27271;45.412;10.852;2023-08-06T09:09:49;37.60;99.90
41547;DHT22;27271;45.412;10.852;2023-08-06T09:13:12;36.80;99.90
41547;DHT22;27271;45.412;10.852;2023-08-06T09:16:35;36.50;99.90
41547;DHT22;27271;45.412;10.852;2023-08-06T09:19:58;36.40;99.90
41547;DHT22;27271;45.412;10.852;2023-08-06T09:23:27;36.60;99.90
41547;DHT22;27271;45.412;10.852;2023-08-06T09:26:51;36.70;99.90
41547;DHT22;27271;45.412;10.852;2023-08-06T09:30:35;36.90;99.90
41547;DHT22;27271;45.412;10.852;2023-08-06T09:34:00;36.80;99.90
41547;DHT22;27271;45.412;10.852;2023-08-06T09:37:23;36.80;99.90
41547;DHT22;27271;45.412;10.852;2023-08-06T09:40:47;36.80;99.90
41547;DHT22;27271;45.412;10.852;2023-08-06T09:44:20;36.80;99.90
41547;DHT22;27271;45.412;10.852;2023-08-06T09:47:43;37.00;99.90
41547;DHT22;27271;45.412;10.852;2023-08-06T09:51:07;37.40;99.90
41547;DHT22;27271;45.412;10.852;2023-08-06T09:54:31;37.00;99.90
41547;DHT22;27271;45.412;10.852;2023-08-06T09:57:58;37.30;99.90
41547;DHT22;27271;45.412;10.852;2023-08-06T10:01:21;36.70;99.90
41547;DHT22;27271;45.412;10.852;2023-08-06T10:04:47;36.80;99.90
41547;DHT22;27271;45.412;10.852;2023-08-06T10:08:16;36.80;99.90
41547;DHT22;27271;45.412;10.852;2023-08-06T10:11:40;36.70;99.90
41547;DHT22;27271;45.412;10.852;2023-08-06T10:15:11;36.60;99.90
41547;DHT22;27271;45.412;10.852;2023-08-06T10:18:44;36.70;99.90
41547;DHT22;27271;45.412;10.852;2023-08-06T10:22:15;36.40;99.90
41547;DHT22;27271;45.412;10.852;2023-08-06T10:25:45;36.10;99.90
41547;DHT22;27271;45.412;10.852;2023-08-06T10:29:35;36.30;99.90
41547;DHT22;27271;45.412;10.852;2023-08-06T10:33:02;36.50;99.90
41547;DHT22;27271;45.412;10.852;2023-08-06T10:36:32;36.20;99.90
41547;DHT22;27271;45.412;10.852;2023-08-06T10:40:00;36.40;99.90
41547;DHT22;27271;45.412;10.852;2023-08-06T10:43:40;36.30;99.90
41547;DHT22;27271;45.412;10.852;2023-08-06T10:47:27;36.10;99.90
41547;DHT22;27271;45.412;10.852;2023-08-06T10:50:52;36.20;99.90
41547;DHT22;27271;45.412;10.852;2023-08-06T10:54:14;35.90;99.90
41547;DHT22;27271;45.412;10.852;2023-08-06T10:57:37;35.40;99.90
41547;DHT22;27271;45.412;10.852;2023-08-06T11:00:59;35.20;99.90
41547;DHT22;27271;45.412;10.852;2023-08-06T11:04:21;35.30;99.90
41547;DHT22;27271;45.412;10.852;2023-08-06T11:07:43;34.40;99.90
41547;DHT22;27271;45.412;10.852;2023-08-06T11:11:16;34.80;99.90
41547;DHT22;27271;45.412;10.852;2023-08-06T11:14:50;35.20;99.90
41547;DHT22;27271;45.412;10.852;2023-08-06T11:18:13;35.20;99.90
41547;DHT22;27271;45.412;10.852;2023-08-06T11:21:35;34.60;99.90
41547;DHT22;27271;45.412;10.852;2023-08-06T11:24:58;34.30;99.90
41547;DHT22;27271;45.412;10.852;2023-08-06T11:28:25;34.20;99.90
41547;DHT22;27271;45.412;10.852;2023-08-06T11:32:13;33.90;99.90
41547;DHT22;27271;45.412;10.852;2023-08-06T11:35:39;33.40;99.90
41547;DHT22;27271;45.412;10.852;2023-08-06T11:39:03;32.50;99.90
41547;DHT22;27271;45.412;10.852;2023-08-06T11:42:30;32.60;99.90
41547;DHT22;27271;45.412;10.852;2023-08-06T11:45:56;32.20;99.90
41547;DHT22;27271;45.412;10.852;2023-08-06T11:49:18;32.30;99.90
41547;DHT22;27271;45.412;10.852;2023-08-06T11:52:59;32.20;99.90
41547;DHT22;27271;45.412;10.852;2023-08-06T11:56:22;32.00;99.90
41547;DHT22;27271;45.412;10.852;2023-08-06T11:59:45;32.00;99.90
41547;DHT22;27271;45.412;10.852;2023-08-06T12:03:22;32.30;99.90
41547;DHT22;27271;45.412;10.852;2023-08-06T12:06:53;32.50;99.90
41547;DHT22;27271;45.412;10.852;2023-08-06T12:10:18;32.60;99.90
41547;DHT22;27271;45.412;10.852;2023-08-06T12:13:44;32.50;99.90
41547;DHT22;27271;45.412;10.852;2023-08-06T12:17:11;32.30;99.90
41547;DHT22;27271;45.412;10.852;2023-08-06T12:20:33;32.20;99.90
41547;DHT22;27271;45.412;10.852;2023-08-06T12:23:56;32.30;99.90
41547;DHT22;27271;45.412;10.852;2023-08-06T12:27:18;32.40;99.90
41547;DHT22;27271;45.412;10.852;2023-08-06T12:30:40;32.20;99.90
41547;DHT22;27271;45.412;10.852;2023-08-06T12:34:08;32.20;99.90
41547;DHT22;27271;45.412;10.852;2023-08-06T12:37:34;32.20;99.90
41547;DHT22;27271;45.412;10.852;2023-08-06T12:41:17;32.80;99.90
41547;DHT22;27271;45.412;10.852;2023-08-06T12:44:39;33.20;99.90
41547;DHT22;27271;45.412;10.852;2023-08-06T12:48:01;33.30;99.90
41547;DHT22;27271;45.412;10.852;2023-08-06T12:51:25;33.20;99.90
41547;DHT22;27271;45.412;10.852;2023-08-06T12:54:47;32.40;99.90
41547;DHT22;27271;45.412;10.852;2023-08-06T12:58:09;33.00;99.90
41547;DHT22;27271;45.412;10.852;2023-08-06T13:01:31;34.00;99.90
41547;DHT22;27271;45.412;10.852;2023-08-06T13:04:53;33.80;99.90
41547;DHT22;27271;45.412;10.852;2023-08-06T13:08:15;33.20;99.90
41547;DHT22;27271;45.412;10.852;2023-08-06T13:11:39;32.80;99.90
41547;DHT22;27271;45.412;10.852;2023-08-06T13:15:01;32.50;99.90
41547;DHT22;27271;45.412;10.852;2023-08-06T13:18:23;32.70;99.90
41547;DHT22;27271;45.412;10.852;2023-08-06T13:25:13;33.90;99.90
41547;DHT22;27271;45.412;10.852;2023-08-06T13:28:38;33.10;99.90
41547;DHT22;27271;45.412;10.852;2023-08-06T13:32:05;32.90;99.90
41547;DHT22;27271;45.412;10.852;2023-08-06T13:35:28;33.60;99.90
41547;DHT22;27271;45.412;10.852;2023-08-06T13:38:51;34.00;99.90
41547;DHT22;27271;45.412;10.852;2023-08-06T13:42:14;34.00;99.90
41547;DHT22;27271;45.412;10.852;2023-08-06T13:45:36;33.00;99.90
41547;DHT22;27271;45.412;10.852;2023-08-06T13:49:00;31.50;99.90
41547;DHT22;27271;45.412;10.852;2023-08-06T13:52:26;30.60;99.90
41547;DHT22;27271;45.412;10.852;2023-08-06T13:55:49;30.80;99.90
41547;DHT22;27271;45.412;10.852;2023-08-06T13:59:11;30.90;99.90
41547;DHT22;27271;45.412;10.852;2023-08-06T14:02:36;30.70;99.90
41547;DHT22;27271;45.412;10.852;2023-08-06T14:05:59;30.10;99.90
41547;DHT22;27271;45.412;10.852;2023-08-06T14:09:22;29.50;99.90
41547;DHT22;27271;45.412;10.852;2023-08-06T14:12:44;28.90;99.90
41547;DHT22;27271;45.412;10.852;2023-08-06T14:16:18;28.60;99.90
41547;DHT22;27271;45.412;10.852;2023-08-06T14:19:41;28.20;99.90
41547;DHT22;27271;45.412;10.852;2023-08-06T14:23:03;28.10;99.90
41547;DHT22;27271;45.412;10.852;2023-08-06T14:26:26;28.30;99.90
41547;DHT22;27271;45.412;10.852;2023-08-06T14:29:48;28.30;99.90
41547;DHT22;27271;45.412;10.852;2023-08-06T14:33:10;28.40;99.90
41547;DHT22;27271;45.412;10.852;2023-08-06T14:36:48;28.50;99.90
41547;DHT22;27271;45.412;10.852;2023-08-06T14:40:11;28.50;99.90
41547;DHT22;27271;45.412;10.852;2023-08-06T14:43:33;28.60;99.90
41547;DHT22;27271;45.412;10.852;2023-08-06T14:46:55;28.40;99.90
41547;DHT22;27271;45.412;10.852;2023-08-06T14:50:18;28.30;99.90
41547;DHT22;27271;45.412;10.852;2023-08-06T14:53:40;28.40;99.90
41547;DHT22;27271;45.412;10.852;2023-08-06T14:57:02;28.40;99.90
41547;DHT22;27271;45.412;10.852;2023-08-06T15:00:25;28.50;99.90
41547;DHT22;27271;45.412;10.852;2023-08-06T15:03:48;28.40;99.90
41547;DHT22;27271;45.412;10.852;2023-08-06T15:07:10;28.50;99.90
41547;DHT22;27271;45.412;10.852;2023-08-06T15:10:32;28.50;99.90
41547;DHT22;27271;45.412;10.852;2023-08-06T15:13:55;28.30;99.90
41547;DHT22;27271;45.412;10.852;2023-08-06T15:17:19;28.40;99.90
41547;DHT22;27271;45.412;10.852;2023-08-06T15:20:42;28.50;99.90
41547;DHT22;27271;45.412;10.852;2023-08-06T15:24:04;28.50;99.90
41547;DHT22;27271;45.412;10.852;2023-08-06T15:27:27;28.30;99.90
41547;DHT22;27271;45.412;10.852;2023-08-06T15:30:50;28.60;99.90
41547;DHT22;27271;45.412;10.852;2023-08-06T15:34:18;28.70;99.90
41547;DHT22;27271;45.412;10.852;2023-08-06T15:37:40;28.90;99.90
41547;DHT22;27271;45.412;10.852;2023-08-06T15:41:04;28.80;99.90
41547;DHT22;27271;45.412;10.852;2023-08-06T15:44:27;29.00;99.90
41547;DHT22;27271;45.412;10.852;2023-08-06T15:47:52;28.70;99.90
41547;DHT22;27271;45.412;10.852;2023-08-06T15:51:16;28.50;99.90
41547;DHT22;27271;45.412;10.852;2023-08-06T15:54:39;28.20;99.90
41547;DHT22;27271;45.412;10.852;2023-08-06T15:58:01;28.10;99.90
41547;DHT22;27271;45.412;10.852;2023-08-06T16:01:24;28.10;99.90
41547;DHT22;27271;45.412;10.852;2023-08-06T16:04:46;27.90;99.90
41547;DHT22;27271;45.412;10.852;2023-08-06T16:08:09;28.00;99.90
41547;DHT22;27271;45.412;10.852;2023-08-06T16:11:31;28.10;99.90
41547;DHT22;27271;45.412;10.852;2023-08-06T16:14:54;28.40;99.90
41547;DHT22;27271;45.412;10.852;2023-08-06T16:18:16;28.30;99.90
41547;DHT22;27271;45.412;10.852;2023-08-06T16:21:38;28.30;99.90
41547;DHT22;27271;45.412;10.852;2023-08-06T16:25:01;28.10;99.90
41547;DHT22;27271;45.412;10.852;2023-08-06T16:28:23;28.00;99.90
41547;DHT22;27271;45.412;10.852;2023-08-06T16:31:45;28.10;99.90
41547;DHT22;27271;45.412;10.852;2023-08-06T16:35:08;28.10;99.90
41547;DHT22;27271;45.412;10.852;2023-08-06T16:38:31;27.80;99.90
41547;DHT22;27271;45.412;10.852;2023-08-06T16:41:53;27.80;99.90
41547;DHT22;27271;45.412;10.852;2023-08-06T16:45:16;27.60;99.90
41547;DHT22;27271;45.412;10.852;2023-08-06T16:48:40;27.40;99.90
41547;DHT22;27271;45.412;10.852;2023-08-06T16:52:02;27.40;99.90
41547;DHT22;27271;45.412;10.852;2023-08-06T16:55:24;27.30;99.90
41547;DHT22;27271;45.412;10.852;2023-08-06T16:58:46;27.10;99.90
41547;DHT22;27271;45.412;10.852;2023-08-06T17:02:09;27.20;99.90
41547;DHT22;27271;45.412;10.852;2023-08-06T17:05:31;27.00;99.90
41547;DHT22;27271;45.412;10.852;2023-08-06T17:08:53;26.80;99.90
41547;DHT22;27271;45.412;10.852;2023-08-06T17:12:15;26.70;99.90
41547;DHT22;27271;45.412;10.852;2023-08-06T17:15:42;26.60;99.90
41547;DHT22;27271;45.412;10.852;2023-08-06T17:19:09;26.50;99.90
41547;DHT22;27271;45.412;10.852;2023-08-06T17:22:33;26.50;99.90
41547;DHT22;27271;45.412;10.852;2023-08-06T17:25:55;26.50;99.90
41547;DHT22;27271;45.412;10.852;2023-08-06T17:29:17;26.40;99.90
41547;DHT22;27271;45.412;10.852;2023-08-06T17:32:39;26.60;99.90
41547;DHT22;27271;45.412;10.852;2023-08-06T17:36:02;26.60;99.90
41547;DHT22;27271;45.412;10.852;2023-08-06T17:39:24;26.40;99.90
41547;DHT22;27271;45.412;10.852;2023-08-06T17:42:47;25.90;99.90
41547;DHT22;27271;45.412;10.852;2023-08-06T17:46:09;25.60;99.90
41547;DHT22;27271;45.412;10.852;2023-08-06T17:49:32;25.30;99.90
41547;DHT22;27271;45.412;10.852;2023-08-06T17:52:57;25.00;99.90
41547;DHT22;27271;45.412;10.852;2023-08-06T17:56:19;24.90;99.90
41547;DHT22;27271;45.412;10.852;2023-08-06T17:59:41;24.70;99.90
41547;DHT22;27271;45.412;10.852;2023-08-06T18:03:03;24.60;99.90
41547;DHT22;27271;45.412;10.852;2023-08-06T18:06:26;24.50;99.90
41547;DHT22;27271;45.412;10.852;2023-08-06T18:09:54;24.50;99.90
41547;DHT22;27271;45.412;10.852;2023-08-06T18:13:21;24.30;99.90
41547;DHT22;27271;45.412;10.852;2023-08-06T18:16:47;24.20;99.90
41547;DHT22;27271;45.412;10.852;2023-08-06T18:20:12;24.10;99.90
41547;DHT22;27271;45.412;10.852;2023-08-06T18:23:34;24.00;99.90
41547;DHT22;27271;45.412;10.852;2023-08-06T18:26:56;23.80;99.90
41547;DHT22;27271;45.412;10.852;2023-08-06T18:30:19;23.50;99.90
41547;DHT22;27271;45.412;10.852;2023-08-06T18:33:41;23.40;99.90
41547;DHT22;27271;45.412;10.852;2023-08-06T18:37:03;23.20;99.90
41547;DHT22;27271;45.412;10.852;2023-08-06T18:40:30;23.10;99.90
41547;DHT22;27271;45.412;10.852;2023-08-06T18:43:52;23.00;99.90
41547;DHT22;27271;45.412;10.852;2023-08-06T18:47:14;22.90;99.90
41547;DHT22;27271;45.412;10.852;2023-08-06T18:50:36;22.80;99.90
41547;DHT22;27271;45.412;10.852;2023-08-06T18:53:59;22.80;99.90
41547;DHT22;27271;45.412;10.852;2023-08-06T18:57:21;22.60;99.90
41547;DHT22;27271;45.412;10.852;2023-08-06T19:00:45;22.50;99.90
41547;DHT22;27271;45.412;10.852;2023-08-06T19:04:07;22.30;99.90
41547;DHT22;27271;45.412;10.852;2023-08-06T19:07:29;22.30;99.90
41547;DHT22;27271;45.412;10.852;2023-08-06T19:10:51;22.30;99.90
41547;DHT22;27271;45.412;10.852;2023-08-06T19:14:13;22.30;99.90
41547;DHT22;27271;45.412;10.852;2023-08-06T19:17:35;22.20;99.90
41547;DHT22;27271;45.412;10.852;2023-08-06T19:20:58;22.10;99.90
41547;DHT22;27271;45.412;10.852;2023-08-06T19:24:20;22.10;99.90
41547;DHT22;27271;45.412;10.852;2023-08-06T19:27:42;21.90;99.90
41547;DHT22;27271;45.412;10.852;2023-08-06T19:31:04;21.70;99.90
41547;DHT22;27271;45.412;10.852;2023-08-06T19:34:29;21.60;99.90
41547;DHT22;27271;45.412;10.852;2023-08-06T19:37:51;21.60;99.90
41547;DHT22;27271;45.412;10.852;2023-08-06T19:41:14;21.50;99.90
41547;DHT22;27271;45.412;10.852;2023-08-06T19:44:36;21.50;99.90
41547;DHT22;27271;45.412;10.852;2023-08-06T19:47:58;21.50;99.90
41547;DHT22;27271;45.412;10.852;2023-08-06T19:51:20;21.40;99.90
41547;DHT22;27271;45.412;10.852;2023-08-06T19:54:42;21.40;99.90
41547;DHT22;27271;45.412;10.852;2023-08-06T19:58:05;21.30;99.90
41547;DHT22;27271;45.412;10.852;2023-08-06T20:01:27;21.30;99.90
41547;DHT22;27271;45.412;10.852;2023-08-06T20:04:50;21.20;99.90
41547;DHT22;27271;45.412;10.852;2023-08-06T20:08:12;21.00;99.90
41547;DHT22;27271;45.412;10.852;2023-08-06T20:11:34;21.00;99.90
41547;DHT22;27271;45.412;10.852;2023-08-06T20:14:56;20.90;99.90
41547;DHT22;27271;45.412;10.852;2023-08-06T20:18:19;20.80;99.90
41547;DHT22;27271;45.412;10.852;2023-08-06T20:21:44;20.60;99.90
41547;DHT22;27271;45.412;10.852;2023-08-06T20:25:07;20.50;99.90
41547;DHT22;27271;45.412;10.852;2023-08-06T20:28:29;20.40;99.90
41547;DHT22;27271;45.412;10.852;2023-08-06T20:31:53;20.30;99.90
41547;DHT22;27271;45.412;10.852;2023-08-06T20:35:15;20.30;99.90
41547;DHT22;27271;45.412;10.852;2023-08-06T20:38:37;20.20;99.90
41547;DHT22;27271;45.412;10.852;2023-08-06T20:42:00;20.10;99.90
41547;DHT22;27271;45.412;10.852;2023-08-06T20:45:22;20.00;99.90
41547;DHT22;27271;45.412;10.852;2023-08-06T20:48:44;19.90;99.90
41547;DHT22;27271;45.412;10.852;2023-08-06T20:52:06;19.80;99.90
41547;DHT22;27271;45.412;10.852;2023-08-06T20:55:29;19.60;99.90
41547;DHT22;27271;45.412;10.852;2023-08-06T20:58:51;19.50;99.90
41547;DHT22;27271;45.412;10.852;2023-08-06T21:02:13;19.50;99.90
41547;DHT22;27271;45.412;10.852;2023-08-06T21:05:35;19.40;99.90
41547;DHT22;27271;45.412;10.852;2023-08-06T21:08:57;19.30;99.90
41547;DHT22;27271;45.412;10.852;2023-08-06T21:12:19;19.20;99.90
41547;DHT22;27271;45.412;10.852;2023-08-06T21:15:41;19.20;99.90
41547;DHT22;27271;45.412;10.852;2023-08-06T21:19:03;19.30;99.90
41547;DHT22;27271;45.412;10.852;2023-08-06T21:22:26;19.20;99.90
41547;DHT22;27271;45.412;10.852;2023-08-06T21:25:54;19.10;99.90
41547;DHT22;27271;45.412;10.852;2023-08-06T21:29:16;18.90;1.00
41547;DHT22;27271;45.412;10.852;2023-08-06T21:32:41;18.70;1.00
41547;DHT22;27271;45.412;10.852;2023-08-06T21:36:04;18.70;1.00
41547;DHT22;27271;45.412;10.852;2023-08-06T21:39:26;18.60;1.00
41547;DHT22;27271;45.412;10.852;2023-08-06T21:42:48;18.70;1.00
41547;DHT22;27271;45.412;10.852;2023-08-06T21:46:16;18.60;1.00
41547;DHT22;27271;45.412;10.852;2023-08-06T21:49:38;18.60;1.00
41547;DHT22;27271;45.412;10.852;2023-08-06T21:53:01;18.60;1.00
41547;DHT22;27271;45.412;10.852;2023-08-06T21:56:23;18.60;1.00
41547;DHT22;27271;45.412;10.852;2023-08-06T21:59:45;18.60;1.00
41547;DHT22;27271;45.412;10.852;2023-08-06T22:03:07;18.60;1.00
41547;DHT22;27271;45.412;10.852;2023-08-06T22:06:30;18.60;1.00
41547;DHT22;27271;45.412;10.852;2023-08-06T22:09:52;18.60;1.00
41547;DHT22;27271;45.412;10.852;2023-08-06T22:13:14;18.60;1.00
41547;DHT22;27271;45.412;10.852;2023-08-06T22:16:36;18.60;1.00
41547;DHT22;27271;45.412;10.852;2023-08-06T22:19:59;18.60;1.00
41547;DHT22;27271;45.412;10.852;2023-08-06T22:23:21;18.50;1.00
41547;DHT22;27271;45.412;10.852;2023-08-06T22:26:43;18.40;1.00
